Time;durP1;ratioP1;P1;durP2;ratioP2;P2;SDS_P1;SDS_P2;PMS_P1;PMS_P2;Temp;Humidity;BMP_temperature;BMP_pressure;BME280_temperature;BME280_humidity;BME280_pressure;Samples;Min_cycle;Max_cycle;Signal;HPM_P1;HPM_P2
2021/10/29 00:01:06;;;;;;;10.73;9.47;;;8.50;88.80;;;;;;5035504;28;20180;-86
2021/10/29 00:03:31;;;;;;;15.17;9.57;;;8.50;88.90;;;;;;5035171;28;20291;-86
2021/10/29 00:05:57;;;;;;;14.17;10.60;;;8.40;89.00;;;;;;5053547;28;20255;-86
2021/10/29 00:08:23;;;;;;;15.47;10.77;;;8.40;89.10;;;;;;5054099;28;20659;-86
2021/10/29 00:10:49;;;;;;;14.83;9.10;;;8.40;89.00;;;;;;5053090;28;20229;-86
2021/10/29 00:13:16;;;;;;;11.03;9.23;;;8.30;89.10;;;;;;5052789;28;20196;-86
2021/10/29 00:15:42;;;;;;;10.40;8.97;;;8.30;89.00;;;;;;5034969;28;20207;-86
2021/10/29 00:18:07;;;;;;;12.07;9.63;;;8.30;89.30;;;;;;5034803;28;20220;-85
2021/10/29 00:20:33;;;;;;;13.70;10.63;;;8.20;89.40;;;;;;5034841;28;20179;-85
2021/10/29 00:22:59;;;;;;;11.27;10.07;;;8.30;89.50;;;;;;5034763;28;20192;-85
2021/10/29 00:25:25;;;;;;;13.20;9.60;;;8.20;89.50;;;;;;5034899;28;20169;-86
2021/10/29 00:27:51;;;;;;;15.47;10.33;;;8.20;89.50;;;;;;5037011;28;20176;-86
2021/10/29 00:30:17;;;;;;;12.13;10.07;;;8.20;89.50;;;;;;5038764;28;20767;-86
2021/10/29 00:32:43;;;;;;;10.73;9.57;;;8.20;89.50;;;;;;5038344;28;20238;-85
2021/10/29 00:35:08;;;;;;;13.17;9.73;;;8.20;89.20;;;;;;5038297;28;20180;-86
2021/10/29 00:37:38;;;;;;;13.27;10.20;;;8.20;89.30;;;;;;5038323;28;20202;-85
2021/10/29 00:40:08;;;;;;;17.53;11.70;;;8.10;89.40;;;;;;5038305;28;20183;-86
2021/10/29 00:42:34;;;;;;;14.13;11.43;;;8.10;89.80;;;;;;5056159;28;20195;-85
2021/10/29 00:45:00;;;;;;;16.17;12.07;;;8.10;90.00;;;;;;5056073;28;20637;-86
2021/10/29 00:47:26;;;;;;;15.73;12.37;;;8.20;90.00;;;;;;5056053;28;20180;-85
2021/10/29 00:49:51;;;;;;;16.63;11.80;;;8.30;89.80;;;;;;5055944;28;20176;-85
2021/10/29 00:52:17;;;;;;;14.83;11.27;;;8.40;89.60;;;;;;5055919;28;20287;-86
2021/10/29 00:54:43;;;;;;;16.70;12.40;;;8.50;89.30;;;;;;5055860;28;20259;-85
2021/10/29 00:57:09;;;;;;;17.13;12.17;;;8.50;89.20;;;;;;5038000;28;20195;-85
2021/10/29 00:59:35;;;;;;;15.03;12.57;;;8.50;89.10;;;;;;5038010;28;20736;-85
2021/10/29 01:02:01;;;;;;;17.20;12.43;;;8.50;89.00;;;;;;5037682;28;20294;-85
2021/10/29 01:04:27;;;;;;;17.23;13.60;;;8.50;88.90;;;;;;5037899;28;20262;-85
2021/10/29 01:06:53;;;;;;;18.40;13.90;;;8.50;88.90;;;;;;5037933;28;20280;-86
2021/10/29 01:09:19;;;;;;;16.83;14.43;;;8.40;89.00;;;;;;5055771;28;20164;-85
2021/10/29 01:11:44;;;;;;;18.83;13.33;;;8.40;89.10;;;;;;5037619;28;20188;-85
2021/10/29 01:14:11;;;;;;;20.83;13.53;;;8.40;89.20;;;;;;5055987;28;20164;-85
2021/10/29 01:16:36;;;;;;;17.10;13.47;;;8.30;89.20;;;;;;5055708;28;20249;-85
2021/10/29 01:19:02;;;;;;;18.13;14.53;;;8.30;89.30;;;;;;5037547;28;20681;-85
2021/10/29 01:21:28;;;;;;;19.53;14.33;;;8.30;89.30;;;;;;5037609;28;20221;-85
2021/10/29 01:23:54;;;;;;;17.40;14.43;;;8.30;89.30;;;;;;5037492;28;20176;-85
2021/10/29 01:26:19;;;;;;;17.53;14.33;;;8.30;89.20;;;;;;5037484;28;20226;-85
2021/10/29 01:28:46;;;;;;;19.87;15.00;;;8.30;89.10;;;;;;5055358;28;20175;-85
2021/10/29 01:31:13;;;;;;;20.50;14.03;;;8.30;89.10;;;;;;5037413;28;20180;-85
2021/10/29 01:33:38;;;;;;;21.70;15.63;;;8.20;89.10;;;;;;5055082;28;20233;-85
2021/10/29 01:36:05;;;;;;;17.93;15.30;;;8.20;89.20;;;;;;5037325;28;20605;-85
2021/10/29 01:38:37;;;;;;;17.50;14.27;;;8.20;89.20;;;;;;5036532;28;20672;-85
2021/10/29 01:41:04;;;;;;;17.57;14.77;;;8.20;89.20;;;;;;5037175;28;20735;-85
2021/10/29 01:43:30;;;;;;;18.93;15.70;;;8.20;89.20;;;;;;5054861;28;20188;-85
2021/10/29 01:45:56;;;;;;;22.80;15.60;;;8.20;89.10;;;;;;5055147;28;20203;-86
2021/10/29 01:48:23;;;;;;;21.43;15.70;;;8.20;89.10;;;;;;5054902;28;20525;-85
2021/10/29 01:50:50;;;;;;;20.20;15.87;;;8.10;89.30;;;;;;5054893;28;20176;-86
2021/10/29 01:53:16;;;;;;;21.43;16.47;;;8.10;89.40;;;;;;5054933;28;20291;-87
2021/10/29 01:55:41;;;;;;;20.63;16.60;;;8.00;89.40;;;;;;5055008;28;20255;-86
2021/10/29 01:58:07;;;;;;;19.93;14.97;;;8.00;89.50;;;;;;5055112;28;20687;-85
2021/10/29 02:00:33;;;;;;;23.63;16.60;;;8.00;89.50;;;;;;5037088;28;20697;-86
2021/10/29 02:02:59;;;;;;;22.13;15.60;;;8.00;89.40;;;;;;5054711;28;20806;-86
2021/10/29 02:05:25;;;;;;;21.67;16.70;;;8.00;89.40;;;;;;5054673;28;20219;-85
2021/10/29 02:07:50;;;;;;;20.33;16.53;;;8.10;89.30;;;;;;5054935;28;20168;-86
2021/10/29 02:10:16;;;;;;;21.77;16.43;;;8.10;89.30;;;;;;5054550;28;20640;-86
2021/10/29 02:12:42;;;;;;;21.27;17.40;;;8.00;89.30;;;;;;5036508;28;20199;-85
2021/10/29 02:15:08;;;;;;;23.70;16.57;;;8.00;89.30;;;;;;5036491;28;20195;-85
2021/10/29 02:17:34;;;;;;;24.00;17.47;;;8.00;89.30;;;;;;5036228;28;20283;-85
2021/10/29 02:20:02;;;;;;;26.30;17.53;;;7.90;89.40;;;;;;5054746;28;20203;-86
2021/10/29 02:22:28;;;;;;;25.13;17.10;;;7.90;89.30;;;;;;5036193;28;20192;-85
2021/10/29 02:24:53;;;;;;;25.07;17.40;;;7.90;89.20;;;;;;5036878;28;20183;-85
2021/10/29 02:27:19;;;;;;;24.80;17.53;;;7.90;89.30;;;;;;5054146;28;20172;-85
2021/10/29 02:29:45;;;;;;;26.17;17.90;;;7.90;89.30;;;;;;5036149;28;20266;-86
2021/10/29 02:32:11;;;;;;;24.50;18.77;;;7.80;89.40;;;;;;5053957;28;20223;-85
2021/10/29 02:34:36;;;;;;;21.53;16.77;;;7.80;89.40;;;;;;5054166;28;20265;-86
2021/10/29 02:37:02;;;;;;;27.60;19.30;;;7.70;89.50;;;;;;5036244;28;20252;-86
2021/10/29 02:39:28;;;;;;;27.93;19.40;;;7.80;89.60;;;;;;5053803;28;20648;-85
2021/10/29 02:41:54;;;;;;;28.03;19.17;;;7.70;89.50;;;;;;5053731;28;20188;-86
2021/10/29 02:44:19;;;;;;;28.10;19.17;;;7.70;89.60;;;;;;5036249;28;20263;-86
2021/10/29 02:46:45;;;;;;;27.90;20.20;;;7.70;89.60;;;;;;5035889;28;20263;-86
2021/10/29 02:49:11;;;;;;;34.53;19.20;;;7.70;89.50;;;;;;5053795;28;20218;-85
2021/10/29 02:51:36;;;;;;;24.63;19.00;;;7.60;89.60;;;;;;5052835;28;20652;-85
2021/10/29 02:54:02;;;;;;;28.27;19.90;;;7.60;89.70;;;;;;5035968;28;20172;-85
2021/10/29 02:56:28;;;;;;;25.37;19.97;;;7.60;89.60;;;;;;5053559;28;20191;-86
2021/10/29 02:58:54;;;;;;;22.33;18.60;;;7.60;89.50;;;;;;5053649;28;20675;-86
2021/10/29 03:01:19;;;;;;;26.17;19.60;;;7.60;89.50;;;;;;5053483;28;20172;-86
2021/10/29 03:03:45;;;;;;;23.77;19.17;;;7.60;89.50;;;;;;5053492;28;20168;-86
2021/10/29 03:06:11;;;;;;;29.13;20.03;;;7.60;89.40;;;;;;5053861;28;20168;-86
2021/10/29 03:08:36;;;;;;;25.37;18.10;;;7.60;89.40;;;;;;5035803;28;20575;-86
2021/10/29 03:11:02;;;;;;;25.90;18.60;;;7.60;89.30;;;;;;5053354;28;20259;-86
2021/10/29 03:13:28;;;;;;;28.10;20.23;;;7.50;89.30;;;;;;5053500;28;20192;-85
2021/10/29 03:15:54;;;;;;;31.33;20.97;;;7.50;89.30;;;;;;5035686;28;20649;-86
2021/10/29 03:18:20;;;;;;;28.03;20.03;;;7.40;89.40;;;;;;5053331;28;20206;-85
2021/10/29 03:20:48;;;;;;;26.50;20.30;;;7.40;89.50;;;;;;5035547;28;20267;-85
2021/10/29 03:23:15;;;;;;;26.40;19.90;;;7.50;89.40;;;;;;5035463;28;20566;-86
2021/10/29 03:25:42;;;;;;;25.63;19.40;;;7.50;89.30;;;;;;5035328;28;20583;-85
2021/10/29 03:28:08;;;;;;;23.13;18.73;;;7.60;89.10;;;;;;5035370;28;20180;-86
2021/10/29 03:30:34;;;;;;;22.87;18.20;;;7.60;89.10;;;;;;5053272;28;20168;-86
2021/10/29 03:33:00;;;;;;;22.60;17.97;;;7.50;89.00;;;;;;5053323;28;20195;-85
2021/10/29 03:35:26;;;;;;;23.00;18.63;;;7.50;88.90;;;;;;5053133;28;20659;-85
2021/10/29 03:38:09;;;;;;;23.50;18.77;;;7.30;89.10;;;;;;5053135;28;20187;-85
2021/10/29 03:46:03;;;;;;;25.60;20.30;;;7.10;89.70;;;;;;5053540;28;20160;-85
2021/10/29 03:56:12;;;;;;;28.67;20.20;;;7.10;89.80;;;;;;5053390;28;20180;-86
2021/10/29 03:58:37;;;;;;;28.80;20.00;;;7.00;89.90;;;;;;5034881;28;20287;-86
2021/10/29 04:01:03;;;;;;;27.47;19.77;;;7.00;89.90;;;;;;5052941;28;20255;-86
2021/10/29 04:03:29;;;;;;;29.73;21.13;;;7.00;89.80;;;;;;5038202;28;20322;-86
2021/10/29 04:05:54;;;;;;;29.73;21.07;;;7.10;89.90;;;;;;5038994;28;20176;-85
2021/10/29 04:08:20;;;;;;;28.13;22.50;;;7.10;89.80;;;;;;5056911;28;20179;-86
2021/10/29 04:10:46;;;;;;;29.90;23.20;;;7.00;89.80;;;;;;5038920;28;20184;-85
2021/10/29 04:13:12;;;;;;;26.57;21.70;;;7.00;89.90;;;;;;5039038;28;20288;-86
2021/10/29 04:15:40;;;;;;;28.30;21.77;;;6.90;89.90;;;;;;5056792;28;20226;-86
2021/10/29 04:18:10;;;;;;;32.50;24.53;;;6.90;90.10;;;;;;5038560;28;20261;-85
2021/10/29 04:20:36;;;;;;;27.33;21.97;;;7.00;90.20;;;;;;5056631;28;20522;-85
2021/10/29 04:23:02;;;;;;;30.17;23.33;;;7.10;90.10;;;;;;5056608;28;20199;-86
2021/10/29 04:25:28;;;;;;;30.30;21.93;;;7.00;90.10;;;;;;5056697;28;20164;-86
2021/10/29 04:28:10;;;;;;;29.73;22.07;;;7.00;90.10;;;;;;5056604;28;20259;-86
2021/10/29 04:30:36;;;;;;;33.90;22.23;;;7.00;90.10;;;;;;5038868;28;20267;-86
2021/10/29 04:33:06;;;;;;;29.37;22.13;;;7.00;90.20;;;;;;5056526;28;20188;-86
2021/10/29 04:35:33;;;;;;;30.57;22.23;;;7.00;90.30;;;;;;5056297;28;20160;-86
2021/10/29 04:37:59;;;;;;;31.53;21.50;;;7.00;90.20;;;;;;5056149;28;20676;-85
2021/10/29 04:40:25;;;;;;;30.43;23.23;;;7.00;90.10;;;;;;5056501;28;20174;-86
2021/10/29 04:42:50;;;;;;;31.77;22.70;;;7.00;90.00;;;;;;5056234;28;20702;-86
2021/10/29 04:45:17;;;;;;;27.53;21.63;;;7.00;89.90;;;;;;5056225;28;20671;-87
2021/10/29 04:47:42;;;;;;;32.20;21.90;;;6.90;89.90;;;;;;5038538;28;20187;-86
2021/10/29 04:50:08;;;;;;;33.10;22.63;;;7.00;89.90;;;;;;5056066;28;20172;-86
2021/10/29 04:52:34;;;;;;;36.57;22.83;;;7.00;89.90;;;;;;5038263;28;20195;-87
2021/10/29 04:55:00;;;;;;;29.43;21.77;;;7.00;89.80;;;;;;5056290;28;20180;-86
2021/10/29 04:57:25;;;;;;;31.40;21.93;;;7.00;89.70;;;;;;5056015;28;20195;-86
2021/10/29 04:59:51;;;;;;;28.50;20.17;;;6.90;89.70;;;;;;5038339;28;20179;-87
2021/10/29 05:02:17;;;;;;;32.67;22.57;;;7.00;89.80;;;;;;5037947;28;20342;-85
2021/10/29 05:04:42;;;;;;;33.37;21.07;;;7.00;89.70;;;;;;5038026;28;20168;-85
2021/10/29 05:07:08;;;;;;;28.10;21.50;;;7.00;89.60;;;;;;5038083;28;20225;-85
2021/10/29 05:09:34;;;;;;;28.37;20.73;;;7.00;89.50;;;;;;5037808;28;20207;-85
2021/10/29 05:11:59;;;;;;;36.80;22.37;;;6.90;89.50;;;;;;5037906;28;20199;-85
2021/10/29 05:14:25;;;;;;;34.80;22.20;;;7.00;89.50;;;;;;5036759;28;20270;-85
2021/10/29 05:16:51;;;;;;;33.17;20.83;;;7.00;89.50;;;;;;5037764;28;20176;-85
2021/10/29 05:19:17;;;;;;;27.67;20.77;;;7.00;89.40;;;;;;5038004;28;20203;-85
2021/10/29 05:21:43;;;;;;;29.07;21.47;;;7.00;89.40;;;;;;5055751;28;20241;-85
2021/10/29 05:24:09;;;;;;;33.50;21.60;;;7.00;89.30;;;;;;5038499;28;20234;-85
2021/10/29 05:26:35;;;;;;;31.57;23.30;;;7.10;89.10;;;;;;5037530;28;20647;-85
2021/10/29 05:29:01;;;;;;;29.27;21.40;;;7.10;89.00;;;;;;5037556;28;20648;-85
2021/10/29 05:31:27;;;;;;;30.23;21.17;;;7.00;88.90;;;;;;5055181;28;20252;-85
2021/10/29 05:33:52;;;;;;;30.13;21.53;;;7.00;88.90;;;;;;5037346;28;20313;-86
2021/10/29 05:36:18;;;;;;;27.43;20.10;;;7.00;89.00;;;;;;5037304;28;20194;-85
2021/10/29 05:38:43;;;;;;;28.10;20.67;;;7.00;88.90;;;;;;5055224;28;20226;-85
2021/10/29 05:41:11;;;;;;;26.60;19.53;;;7.00;89.00;;;;;;5055412;28;20211;-86
2021/10/29 05:43:37;;;;;;;30.33;20.93;;;7.00;89.00;;;;;;5037132;28;20200;-85
2021/10/29 05:46:03;;;;;;;28.43;21.00;;;7.00;88.90;;;;;;5037216;28;20183;-86
2021/10/29 05:48:29;;;;;;;30.80;20.13;;;7.00;88.80;;;;;;5054987;28;20182;-85
2021/10/29 05:50:55;;;;;;;29.80;20.83;;;7.00;88.90;;;;;;5036992;28;20678;-85
2021/10/29 05:55:56;;;;;;;27.57;20.93;;;7.00;88.90;;;;;;5054988;28;20308;-85
2021/10/29 05:58:21;;;;;;;29.43;20.50;;;7.00;88.80;;;;;;5036914;28;20616;-86
2021/10/29 06:00:47;;;;;;;28.07;20.60;;;7.00;88.80;;;;;;5037154;28;20277;-85
2021/10/29 06:03:13;;;;;;;26.93;19.97;;;7.00;88.80;;;;;;5054407;28;20230;-86
2021/10/29 06:05:39;;;;;;;30.67;21.47;;;6.90;88.90;;;;;;5036979;28;20640;-86
2021/10/29 06:08:05;;;;;;;28.20;19.47;;;6.90;88.80;;;;;;5036748;28;20614;-85
2021/10/29 06:10:31;;;;;;;26.57;19.43;;;6.90;88.70;;;;;;5036572;28;20184;-85
2021/10/29 06:12:57;;;;;;;27.27;19.83;;;6.90;88.70;;;;;;5054677;28;20204;-85
2021/10/29 06:15:23;;;;;;;25.50;18.97;;;6.90;88.70;;;;;;5036634;28;20600;-87
2021/10/29 06:17:49;;;;;;;30.03;20.97;;;6.90;88.70;;;;;;5036483;28;20210;-86
2021/10/29 06:20:17;;;;;;;28.17;19.43;;;6.90;88.70;;;;;;5054526;28;20182;-86
2021/10/29 06:22:48;;;;;;;23.07;18.20;;;6.90;88.70;;;;;;5054161;28;20196;-85
2021/10/29 06:25:18;;;;;;;29.70;19.50;;;6.80;88.70;;;;;;5054215;28;20156;-87
2021/10/29 06:30:29;;;;;;;26.43;19.60;;;6.90;88.70;;;;;;5054795;28;20537;-85
2021/10/29 06:32:55;;;;;;;27.33;19.23;;;7.00;88.50;;;;;;5036229;28;20207;-86
2021/10/29 06:35:22;;;;;;;25.80;18.17;;;7.00;88.60;;;;;;5036140;28;20184;-86
2021/10/29 06:37:48;;;;;;;28.70;18.97;;;7.00;88.60;;;;;;5036275;28;20203;-85
2021/10/29 06:40:15;;;;;;;29.37;18.87;;;6.90;88.80;;;;;;5036205;28;20176;-85
2021/10/29 06:42:47;;;;;;;29.00;18.93;;;6.90;88.90;;;;;;5053778;28;20677;-85
2021/10/29 06:47:52;;;;;;;27.40;19.60;;;7.00;88.90;;;;;;5054271;28;20580;-86
2021/10/29 07:01:23;;;;;;;30.50;19.37;;;7.10;88.80;;;;;;5054107;28;20237;-86
2021/10/29 07:41:54;;;;;;;28.13;19.03;;;7.60;88.50;;;;;;5058124;28;20202;-86
2021/10/29 07:44:26;;;;;;;27.67;18.37;;;7.70;88.50;;;;;;5057695;28;20164;-86
2021/10/29 07:46:52;;;;;;;29.17;18.30;;;7.70;88.30;;;;;;5057493;28;20569;-86
2021/10/29 07:49:18;;;;;;;25.43;18.03;;;7.80;88.20;;;;;;5039383;28;20176;-86
2021/10/29 07:51:44;;;;;;;35.70;19.63;;;7.80;88.20;;;;;;5039200;28;20203;-85
2021/10/29 07:54:10;;;;;;;28.93;19.30;;;7.90;88.00;;;;;;5039367;28;20535;-85
2021/10/29 07:56:36;;;;;;;32.73;18.83;;;7.90;88.10;;;;;;5039577;28;20191;-86
2021/10/29 07:59:03;;;;;;;25.33;18.23;;;8.00;88.00;;;;;;5039157;28;20199;-85
2021/10/29 08:01:29;;;;;;;28.00;18.60;;;8.10;87.90;;;;;;5057399;28;20259;-86
2021/10/29 08:03:55;;;;;;;30.03;19.20;;;8.20;88.10;;;;;;5057356;28;20247;-85
2021/10/29 08:06:20;;;;;;;28.37;18.80;;;8.30;88.00;;;;;;5039151;28;20176;-85
2021/10/29 08:08:49;;;;;;;29.00;18.30;;;8.30;88.10;;;;;;5039148;28;20183;-85
2021/10/29 08:11:15;;;;;;;27.50;18.37;;;8.50;87.50;;;;;;5039844;28;20267;-85
2021/10/29 08:13:41;;;;;;;25.17;16.30;;;8.50;87.50;;;;;;5057208;28;20619;-85
2021/10/29 08:16:07;;;;;;;29.87;17.40;;;8.70;86.60;;;;;;5039211;28;20187;-85
2021/10/29 08:18:42;;;;;;;27.90;17.50;;;8.70;86.40;;;;;;5039245;28;20286;-86
2021/10/29 08:21:08;;;;;;;28.43;17.80;;;8.80;86.70;;;;;;5057008;28;20156;-85
2021/10/29 08:23:34;;;;;;;28.23;17.23;;;8.80;86.40;;;;;;5039006;28;20200;-86
2021/10/29 08:25:59;;;;;;;23.70;16.63;;;8.80;86.70;;;;;;5039402;28;20262;-87
2021/10/29 08:28:25;;;;;;;29.40;17.73;;;8.80;87.10;;;;;;5039478;28;20202;-86
2021/10/29 08:30:51;;;;;;;32.27;19.03;;;8.90;87.30;;;;;;5057357;28;20614;-86
2021/10/29 08:33:18;;;;;;;32.77;17.73;;;9.00;86.90;;;;;;5039571;28;20680;-86
2021/10/29 08:35:44;;;;;;;32.53;17.83;;;9.00;86.60;;;;;;5057758;28;20231;-87
2021/10/29 08:38:09;;;;;;;22.50;16.43;;;9.10;86.40;;;;;;5039694;28;20291;-88
2021/10/29 08:40:35;;;;;;;27.87;18.00;;;9.20;86.60;;;;;;5039910;28;20204;-86
2021/10/29 08:43:01;;;;;;;26.00;17.70;;;9.20;86.70;;;;;;5056982;28;20656;-85
2021/10/29 08:45:27;;;;;;;27.13;16.53;;;9.30;86.60;;;;;;5038536;28;20203;-86
2021/10/29 08:47:55;;;;;;;26.40;17.27;;;9.30;86.40;;;;;;5056541;28;20259;-86
2021/10/29 08:50:22;;;;;;;26.03;17.03;;;9.40;86.30;;;;;;5038792;28;20199;-86
2021/10/29 08:52:49;;;;;;;24.93;16.97;;;9.40;86.30;;;;;;5038911;28;20282;-86
2021/10/29 08:55:17;;;;;;;31.37;17.53;;;9.50;86.20;;;;;;5038527;28;20233;-85
2021/10/29 08:57:48;;;;;;;22.83;15.97;;;9.60;86.50;;;;;;5056914;28;20226;-86
2021/10/29 09:00:20;;;;;;;24.07;16.73;;;9.70;86.30;;;;;;5039422;28;20178;-86
2021/10/29 09:02:57;;;;;;;22.07;15.97;;;9.80;85.70;;;;;;5038728;28;20216;-86
2021/10/29 09:05:32;;;;;;;25.80;17.03;;;9.80;85.70;;;;;;5056294;28;20265;-86
2021/10/29 09:11:09;;;;;;;21.93;15.70;;;10.20;85.60;;;;;;5056019;28;20561;-86
2021/10/29 09:31:23;;;;;;;23.13;13.77;;;10.80;83.20;;;;;;5056516;28;20687;-86
2021/10/29 09:31:28;;;;;;;17.10;11.80;;;11.40;82.00;;;;;;5056952;28;20258;-85
2021/10/29 09:34:12;;;;;;;18.50;12.57;;;11.50;80.70;;;;;;5037835;28;20667;-86
2021/10/29 09:36:41;;;;;;;17.20;12.37;;;11.60;81.40;;;;;;5055911;28;20156;-85
2021/10/29 09:39:14;;;;;;;18.53;12.83;;;11.70;80.50;;;;;;5037552;28;20195;-85
2021/10/29 09:41:42;;;;;;;17.07;12.60;;;11.70;81.10;;;;;;5055913;28;20237;-86
2021/10/29 09:44:16;;;;;;;22.03;13.67;;;11.80;81.00;;;;;;5056373;28;20170;-86
2021/10/29 09:46:58;;;;;;;19.17;12.50;;;11.90;81.50;;;;;;5056049;28;20156;-86
2021/10/29 09:49:52;;;;;;;16.60;11.47;;;12.00;80.70;;;;;;5038031;28;20164;-86
2021/10/29 09:52:34;;;;;;;16.37;11.93;;;12.20;80.80;;;;;;5055807;28;20211;-86
2021/10/29 09:57:35;;;;;;;21.00;12.70;;;12.30;81.00;;;;;;5055768;28;20187;-86
2021/10/29 10:00:15;;;;;;;18.33;13.57;;;12.40;80.60;;;;;;5055013;28;20683;-86
2021/10/29 10:02:42;;;;;;;17.60;11.77;;;12.60;80.90;;;;;;5037290;28;20220;-87
2021/10/29 10:05:09;;;;;;;17.87;11.80;;;12.80;78.70;;;;;;5054434;28;20536;-87
2021/10/29 10:07:37;;;;;;;18.50;11.20;;;12.90;78.80;;;;;;5054423;28;20168;-86
2021/10/29 10:10:07;;;;;;;18.40;12.43;;;13.00;78.80;;;;;;5036442;28;20172;-86
2021/10/29 10:12:37;;;;;;;16.67;11.33;;;13.20;79.00;;;;;;5036469;28;20742;-87
2021/10/29 10:15:08;;;;;;;12.00;9.63;;;13.20;76.90;;;;;;5036391;28;20172;-87
2021/10/29 10:17:34;;;;;;;17.17;10.07;;;13.30;77.10;;;;;;5036357;28;20200;-87
2021/10/29 10:20:03;;;;;;;15.17;10.50;;;13.40;76.40;;;;;;5054217;28;20179;-87
2021/10/29 10:22:41;;;;;;;13.53;9.77;;;13.60;76.30;;;;;;5036326;28;20219;-87
2021/10/29 10:25:15;;;;;;;15.63;10.27;;;13.60;74.70;;;;;;5036335;28;20172;-87
2021/10/29 10:46:50;;;;;;;15.37;8.97;;;14.50;74.70;;;;;;5054125;28;20159;-87
2021/10/29 10:49:20;;;;;;;14.13;8.57;;;14.60;72.90;;;;;;5035956;28;20172;-87
2021/10/29 10:52:03;;;;;;;14.23;8.63;;;14.60;73.00;;;;;;5035733;28;20203;-87
2021/10/29 10:54:34;;;;;;;11.43;9.37;;;14.80;73.80;;;;;;5036124;28;20183;-87
2021/10/29 10:59:46;;;;;;;16.53;9.50;;;14.90;72.60;;;;;;5053538;28;20179;-87
2021/10/29 11:10:57;;;;;;;11.38;7.60;;;15.70;71.70;;;;;;5053503;28;20502;-87
2021/10/29 11:13:47;;;;;;;11.18;7.30;;;15.70;69.60;;;;;;5053013;28;20561;-87
2021/10/29 11:16:24;;;;;;;10.80;7.50;;;15.80;69.40;;;;;;5041291;28;20180;-88
2021/10/29 11:19:09;;;;;;;13.25;7.18;;;16.00;68.70;;;;;;5053206;28;20191;-87
2021/10/29 11:21:45;;;;;;;9.70;6.50;;;16.20;70.10;;;;;;5053547;28;20554;-87
2021/10/29 11:24:13;;;;;;;13.20;7.13;;;16.30;70.10;;;;;;5035599;28;20176;-87
2021/10/29 11:26:41;;;;;;;13.27;6.88;;;16.40;69.80;;;;;;5053294;28;20195;-87
2021/10/29 11:29:11;;;;;;;9.85;6.95;;;16.50;68.30;;;;;;5035913;28;20176;-87
2021/10/29 11:31:46;;;;;;;8.80;6.65;;;16.60;67.50;;;;;;5054072;28;20164;-87
2021/10/29 11:34:14;;;;;;;9.25;6.03;;;16.50;68.50;;;;;;5035408;28;20252;-87
2021/10/29 11:36:48;;;;;;;12.80;6.35;;;16.50;66.80;;;;;;5035964;28;20176;-87
2021/10/29 11:39:16;;;;;;;11.80;6.80;;;16.60;68.40;;;;;;5054059;28;20318;-86
2021/10/29 11:41:44;;;;;;;8.13;5.88;;;16.70;67.80;;;;;;5054014;28;20223;-87
2021/10/29 11:44:15;;;;;;;8.90;6.43;;;16.90;67.10;;;;;;5036147;28;20539;-88
2021/10/29 11:46:43;;;;;;;9.90;5.78;;;17.00;66.80;;;;;;5035717;28;20586;-88
2021/10/29 11:49:14;;;;;;;9.60;6.28;;;17.10;67.60;;;;;;5035957;28;20595;-86
2021/10/29 11:51:41;;;;;;;7.70;5.80;;;17.20;64.90;;;;;;5035759;28;20253;-87
2021/10/29 11:54:24;;;;;;;7.95;5.90;;;17.10;65.00;;;;;;5053931;28;20176;-88
2021/10/29 12:09:48;;;;;;;8.43;5.72;;;17.00;66.80;;;;;;5053244;28;20159;-87
2021/10/29 12:12:18;;;;;;;9.95;5.78;;;17.00;66.60;;;;;;5053264;28;20215;-87
2021/10/29 12:14:46;;;;;;;6.53;5.63;;;17.00;66.50;;;;;;5052908;28;20596;-86
2021/10/29 12:17:16;;;;;;;16.75;6.15;;;17.00;66.00;;;;;;5035315;28;20172;-87
2021/10/29 12:19:44;;;;;;;9.32;5.93;;;17.00;66.30;;;;;;5035434;28;20551;-87
2021/10/29 12:25:03;;;;;;;10.30;5.03;;;17.20;65.80;;;;;;5056877;28;20206;-86
2021/10/29 12:27:39;;;;;;;10.43;4.57;;;17.40;65.00;;;;;;5056755;28;20617;-87
2021/10/29 12:39:02;;;;;;;7.47;4.63;;;17.80;64.30;;;;;;5056602;28;20241;-87
2021/10/29 13:01:38;;;;;;;5.32;4.30;;;17.40;63.10;;;;;;5056683;28;20530;-86
2021/10/29 13:04:11;;;;;;;5.72;4.07;;;17.30;63.60;;;;;;5038137;28;20197;-87
2021/10/29 13:06:54;;;;;;;7.20;3.90;;;17.20;63.40;;;;;;5037864;28;20187;-87
2021/10/29 13:09:27;;;;;;;5.97;4.03;;;17.10;64.20;;;;;;5055741;28;20160;-87
2021/10/29 13:12:00;;;;;;;7.50;3.90;;;16.90;63.90;;;;;;5037888;28;20731;-87
2021/10/29 13:14:35;;;;;;;7.40;3.85;;;16.90;65.00;;;;;;5055487;28;20153;-87
2021/10/29 13:17:03;;;;;;;8.73;3.80;;;16.90;65.00;;;;;;5037620;28;20176;-87
2021/10/29 13:54:25;;;;;;;5.72;2.90;;;17.40;63.80;;;;;;5055166;28;20546;-87
2021/10/29 14:29:35;;;;;;;5.07;3.13;;;16.50;65.80;;;;;;5055650;28;20171;-86
2021/10/29 14:34:39;;;;;;;3.67;3.28;;;16.30;66.50;;;;;;5055421;28;20540;-86
2021/10/29 14:37:25;;;;;;;7.00;3.40;;;16.30;67.50;;;;;;5036795;28;20204;-86
2021/10/29 14:45:10;;;;;;;3.88;3.17;;;16.00;68.50;;;;;;5054221;28;20632;-86
2021/10/29 14:47:46;;;;;;;4.82;3.05;;;16.00;68.60;;;;;;5036037;28;20172;-86
2021/10/29 15:17:21;;;;;;;7.07;3.28;;;15.20;71.20;;;;;;5053837;28;20171;-86
2021/10/29 15:28:15;;;;;;;8.30;3.67;;;14.70;73.50;;;;;;5053937;28;20665;-86
2021/10/29 15:33:34;;;;;;;5.05;3.38;;;14.50;74.10;;;;;;5053431;28;20198;-86
2021/10/29 15:46:33;;;;;;;6.78;4.20;;;14.50;74.00;;;;;;5053326;28;20259;-86
2021/10/29 15:51:28;;;;;;;4.45;3.60;;;14.40;74.40;;;;;;5052837;28;20222;-85
2021/10/29 15:53:53;;;;;;;6.97;3.60;;;14.40;74.30;;;;;;5052902;28;20656;-85
2021/10/29 15:56:27;;;;;;;9.53;5.97;;;14.30;74.60;;;;;;5052967;28;20245;-86
2021/10/29 15:59:15;;;;;;;11.53;8.17;;;14.20;74.60;;;;;;5055119;28;20710;-86
2021/10/29 16:17:48;;;;;;;11.53;4.10;;;13.80;75.70;;;;;;5056472;28;20194;-86
2021/10/29 16:20:15;;;;;;;9.70;3.60;;;13.70;76.00;;;;;;5056453;28;20176;-85
2021/10/29 16:22:41;;;;;;;6.13;3.97;;;13.80;76.00;;;;;;5038479;28;20299;-86
2021/10/29 16:25:11;;;;;;;9.37;4.77;;;13.70;76.00;;;;;;5056588;28;20171;-86
2021/10/29 16:27:57;;;;;;;8.53;4.03;;;13.60;76.10;;;;;;5056392;28;20168;-86
2021/10/29 16:30:26;;;;;;;5.90;4.17;;;13.60;76.20;;;;;;5056379;28;20573;-86
2021/10/29 16:35:24;;;;;;;5.67;3.93;;;13.50;75.70;;;;;;5056220;28;20595;-86
2021/10/29 16:37:50;;;;;;;17.07;11.93;;;13.40;76.00;;;;;;5038204;28;20584;-86
2021/10/29 16:40:15;;;;;;;19.63;13.83;;;13.40;75.90;;;;;;5038231;28;20168;-86
2021/10/29 16:42:41;;;;;;;11.50;7.13;;;13.30;76.10;;;;;;5038192;28;20192;-86
2021/10/29 16:45:09;;;;;;;11.63;6.67;;;13.30;76.10;;;;;;5038089;28;20168;-86
2021/10/29 16:47:35;;;;;;;7.63;5.23;;;13.30;76.00;;;;;;5038141;28;20595;-86
2021/10/29 16:50:05;;;;;;;7.83;3.77;;;13.30;76.00;;;;;;5055893;28;20175;-86
2021/10/29 16:52:30;;;;;;;9.90;3.30;;;13.30;75.90;;;;;;5037937;28;20191;-86
2021/10/29 16:54:56;;;;;;;6.03;3.63;;;13.30;76.00;;;;;;5037991;28;20643;-86
2021/10/29 16:57:22;;;;;;;4.70;3.87;;;13.20;76.30;;;;;;5037868;28;20175;-86
2021/10/29 16:59:48;;;;;;;9.43;3.57;;;13.20;76.20;;;;;;5037842;28;20222;-86
2021/10/29 17:02:14;;;;;;;6.13;3.70;;;13.20;76.20;;;;;;5037684;28;20306;-86
2021/10/29 17:04:39;;;;;;;12.37;5.13;;;13.20;76.00;;;;;;5055554;28;20168;-86
2021/10/29 17:07:07;;;;;;;3.90;3.50;;;13.10;76.20;;;;;;5055551;28;20168;-86
2021/10/29 17:09:33;;;;;;;9.13;4.30;;;13.10;76.20;;;;;;5036646;28;20259;-86
2021/10/29 17:11:58;;;;;;;7.07;3.70;;;13.20;75.70;;;;;;5055420;28;20203;-86
2021/10/29 17:14:26;;;;;;;7.63;4.47;;;13.20;75.40;;;;;;5037545;28;20202;-86
2021/10/29 17:16:53;;;;;;;5.00;4.30;;;13.20;75.40;;;;;;5037841;28;20528;-86
2021/10/29 17:19:19;;;;;;;7.63;4.93;;;13.20;75.30;;;;;;5055277;28;20721;-86
2021/10/29 17:21:44;;;;;;;6.07;4.47;;;13.20;75.40;;;;;;5055548;28;20172;-86
2021/10/29 17:24:10;;;;;;;9.23;5.17;;;13.20;75.70;;;;;;5037381;28;20663;-86
2021/10/29 17:26:36;;;;;;;6.20;4.20;;;13.20;76.00;;;;;;5037284;28;20172;-86
2021/10/29 17:29:02;;;;;;;8.07;4.23;;;13.20;75.40;;;;;;5055405;28;20285;-86
2021/10/29 17:31:29;;;;;;;7.37;5.20;;;13.20;75.40;;;;;;5037334;28;20176;-86
2021/10/29 17:33:54;;;;;;;59.60;38.83;;;13.20;75.50;;;;;;5037195;28;20234;-86
2021/10/29 17:36:20;;;;;;;11.50;8.90;;;13.20;75.40;;;;;;5037113;28;20249;-86
2021/10/29 17:38:46;;;;;;;6.57;4.90;;;13.30;75.10;;;;;;5054924;28;20247;-86
2021/10/29 17:41:12;;;;;;;6.73;3.37;;;13.30;74.60;;;;;;5055009;28;20167;-86
2021/10/29 17:43:38;;;;;;;7.43;3.93;;;13.30;74.50;;;;;;5055229;28;20591;-86
2021/10/29 17:46:05;;;;;;;7.37;3.90;;;13.50;74.20;;;;;;5037077;28;20532;-86
2021/10/29 17:48:31;;;;;;;5.47;3.97;;;13.50;74.10;;;;;;5037656;28;20176;-86
2021/10/29 17:50:57;;;;;;;10.43;4.40;;;13.50;73.90;;;;;;5054916;28;20180;-86
2021/10/29 17:53:24;;;;;;;5.53;4.00;;;13.50;74.00;;;;;;5054730;28;20188;-87